Time;durP1;ratioP1;P1;durP2;ratioP2;P2;SDS_P1;SDS_P2;PMS_P1;PMS_P2;Temp;Humidity;BMP_temperature;BMP_pressure;BME280_temperature;BME280_humidity;BME280_pressure;Samples;Min_cycle;Max_cycle;Signal;HPM_P1;HPM_P2
2024/02/09 08:01:07;;;;;;;5.78;2.15;;;;;;;8.61;95.30;94304.72;2101261;27;20944;-70
2024/02/09 08:02:10;;;;;;;14.30;2.38;;;;;;;8.71;94.88;94306.66;2093588;28;20996;-71
2024/02/09 08:19:40;;;;;;;18.70;3.10;;;;;;;8.86;95.23;94297.69;2102464;27;20552;-70
2024/02/09 08:22:34;;;;;;;12.73;2.78;;;;;;;9.01;94.07;94306.13;2086734;28;20548;-70
2024/02/09 08:36:28;;;;;;;4.25;1.75;;;;;;;9.17;92.60;94333.59;2090915;28;20569;-73
2024/02/09 08:39:40;;;;;;;6.78;1.98;;;;;;;9.27;93.58;94338.00;2099671;27;20560;-71
2024/02/09 08:42:33;;;;;;;3.50;1.30;;;;;;;9.24;92.27;94321.78;2085560;28;20570;-71
2024/02/09 08:45:11;;;;;;;3.10;1.60;;;;;;;9.28;92.48;94313.63;2084011;28;21022;-71
2024/02/09 08:46:12;;;;;;;2.22;1.60;;;;;;;9.26;92.83;94336.34;2078952;28;20311;-71
2024/02/09 08:48:47;;;;;;;5.85;1.50;;;;;;;9.48;93.05;94330.31;2082949;28;20559;-71
2024/02/09 08:49:49;;;;;;;5.20;1.40;;;;;;;9.54;92.65;94330.78;2079733;28;20197;-71
2024/02/09 08:50:50;;;;;;;6.43;2.20;;;;;;;9.49;92.77;94323.31;2080120;28;20725;-72
2024/02/09 08:51:52;;;;;;;5.15;1.08;;;;;;;9.64;92.26;94321.31;2079660;28;20262;-72
2024/02/09 08:52:54;;;;;;;5.10;1.48;;;;;;;9.66;91.19;94322.00;2077306;28;20715;-71
2024/02/09 08:53:55;;;;;;;4.28;1.55;;;;;;;9.68;91.27;94320.13;2077441;28;20671;-72
2024/02/09 08:54:57;;;;;;;4.72;1.33;;;;;;;9.58;91.08;94317.38;2076927;28;20246;-71
2024/02/09 08:55:58;;;;;;;6.40;1.05;;;;;;;9.73;91.15;94304.94;2073397;28;20201;-71
2024/02/09 08:57:00;;;;;;;4.30;1.50;;;;;;;9.89;90.31;94321.97;2080575;28;20204;-71
2024/02/09 08:58:04;;;;;;;4.47;1.33;;;;;;;10.00;90.19;94321.16;2080420;28;20229;-71
2024/02/09 08:59:06;;;;;;;4.18;1.40;;;;;;;10.13;89.60;94313.97;2074813;28;20211;-71
2024/02/09 09:00:13;;;;;;;3.28;1.25;;;;;;;10.10;89.10;94312.44;2073906;28;20201;-71
2024/02/09 09:01:15;;;;;;;6.82;1.67;;;;;;;10.18;89.69;94319.66;2073003;28;20235;-71
2024/02/09 09:02:17;;;;;;;5.32;1.35;;;;;;;10.20;88.96;94311.72;2072893;28;20201;-72
2024/02/09 09:03:18;;;;;;;8.55;1.13;;;;;;;10.20;88.78;94315.16;2076716;28;20236;-73
2024/02/09 09:04:20;;;;;;;2.83;1.20;;;;;;;10.04;88.06;94309.50;2070182;28;20202;-71
2024/02/09 09:05:23;;;;;;;5.03;1.52;;;;;;;9.79;88.76;94299.25;2074940;28;20193;-72
2024/02/09 09:06:24;;;;;;;4.05;1.42;;;;;;;9.80;89.05;94305.28;2071373;28;20210;-72
2024/02/09 09:07:26;;;;;;;9.30;1.40;;;;;;;9.86;89.22;94327.44;2071016;28;20236;-71
2024/02/09 09:08:29;;;;;;;6.40;1.40;;;;;;;9.82;89.84;94308.59;2074096;28;20228;-71
2024/02/09 09:09:30;;;;;;;2.45;1.10;;;;;;;9.78;89.78;94310.63;2074958;28;20197;-71
2024/02/09 09:10:32;;;;;;;7.25;1.30;;;;;;;9.84;89.85;94313.69;2073784;28;20243;-71
2024/02/09 09:11:34;;;;;;;4.63;1.42;;;;;;;9.86;89.54;94301.38;2077791;28;20194;-71
2024/02/09 09:12:36;;;;;;;3.05;1.45;;;;;;;9.90;89.63;94313.22;2078679;28;20201;-72
2024/02/09 09:13:38;;;;;;;3.20;1.65;;;;;;;9.93;89.58;94308.59;2074177;28;20229;-72
2024/02/09 09:14:40;;;;;;;6.70;1.48;;;;;;;9.84;89.60;94282.41;2073168;28;20719;-71
2024/02/09 09:15:42;;;;;;;4.60;1.52;;;;;;;9.99;89.06;94316.88;2070114;28;20282;-71
2024/02/09 09:16:44;;;;;;;3.47;1.35;;;;;;;10.09;88.29;94309.97;2071104;28;20543;-72
2024/02/09 09:17:48;;;;;;;4.72;1.30;;;;;;;10.15;88.14;94308.66;2072370;28;20600;-70
2024/02/09 09:18:50;;;;;;;3.35;1.60;;;;;;;10.19;88.62;94310.88;2065809;28;20213;-72
2024/02/09 09:19:52;;;;;;;6.20;1.73;;;;;;;10.15;88.54;94295.63;2073139;28;20261;-72
2024/02/09 09:20:54;;;;;;;2.97;1.27;;;;;;;10.05;88.68;94308.56;2074811;28;20197;-72
2024/02/09 09:21:55;;;;;;;4.30;1.95;;;;;;;10.03;88.93;94313.91;2074191;28;20560;-71
2024/02/09 09:22:58;;;;;;;4.90;1.42;;;;;;;9.97;88.75;94315.22;2072097;28;20216;-72
2024/02/09 09:23:59;;;;;;;4.90;1.60;;;;;;;9.97;89.35;94315.22;2072910;28;20371;-71
2024/02/09 09:25:03;;;;;;;2.92;1.17;;;;;;;9.95;89.19;94324.94;2071264;28;20248;-71
2024/02/09 09:26:06;;;;;;;4.07;1.23;;;;;;;9.93;89.28;94316.41;2072858;28;20248;-71
2024/02/09 09:27:25;;;;;;;5.45;1.40;;;;;;;9.87;89.53;94319.50;2074342;28;20688;-72
2024/02/09 09:28:27;;;;;;;6.47;1.73;;;;;;;9.85;89.37;94313.56;2073794;28;20230;-71
2024/02/09 09:31:42;;;;;;;4.53;1.55;;;;;;;9.76;90.34;94311.69;2073848;28;20553;-70
2024/02/09 09:32:43;;;;;;;5.82;1.20;;;;;;;9.74;89.69;94311.00;2076249;28;20197;-71
2024/02/09 09:35:37;;;;;;;6.20;1.55;;;;;;;9.64;89.91;94284.81;2086037;28;20559;-72
2024/02/09 09:36:39;;;;;;;7.32;1.65;;;;;;;9.70;90.07;94299.13;2080842;28;20193;-72
2024/02/09 09:39:29;;;;;;;4.70;1.20;;;;;;;9.83;90.64;94314.63;2124100;27;20567;-70
2024/02/09 09:40:35;;;;;;;7.30;1.10;;;;;;;9.88;90.02;94304.66;2122114;27;20197;-71
2024/02/09 09:43:05;;;;;;;6.53;1.30;;;;;;;9.88;89.53;94302.06;2083549;28;20568;-70
2024/02/09 09:44:07;;;;;;;4.00;1.30;;;;;;;10.04;88.92;94304.28;2081529;28;20232;-70
2024/02/09 09:45:09;;;;;;;5.32;1.73;;;;;;;10.05;89.10;94306.78;2082244;28;20263;-71
2024/02/09 09:46:11;;;;;;;4.55;1.40;;;;;;;10.08;88.77;94308.31;2082600;28;20251;-71
2024/02/09 09:47:14;;;;;;;2.85;1.17;;;;;;;10.10;88.24;94304.63;2080284;28;20192;-71
2024/02/09 09:48:16;;;;;;;6.25;1.55;;;;;;;10.20;88.76;94304.72;2080868;28;20308;-71
2024/02/09 09:49:18;;;;;;;4.03;1.73;;;;;;;10.21;88.94;94295.97;2082581;28;20853;-71
2024/02/09 09:50:21;;;;;;;5.70;1.50;;;;;;;10.34;88.81;94305.41;2082704;28;20698;-71
2024/02/09 09:51:30;;;;;;;3.65;1.40;;;;;;;10.40;87.47;94307.56;2081382;28;20197;-70
2024/02/09 09:52:35;;;;;;;3.47;1.20;;;;;;;10.54;87.04;94306.41;2081955;28;20200;-71
2024/02/09 09:53:39;;;;;;;8.70;1.48;;;;;;;10.67;85.79;94307.06;2080741;28;20344;-71
2024/02/09 09:54:42;;;;;;;4.30;1.25;;;;;;;10.67;85.18;94303.63;2080351;28;20287;-71
2024/02/09 09:55:45;;;;;;;15.15;1.83;;;;;;;10.66;85.03;94313.22;2079541;28;20675;-71
2024/02/09 09:56:48;;;;;;;5.28;1.70;;;;;;;10.67;84.44;94304.44;2083012;28;20236;-71
2024/02/09 09:57:50;;;;;;;4.25;1.60;;;;;;;10.78;84.18;94299.19;2081332;28;20204;-73
2024/02/09 09:58:52;;;;;;;6.47;1.50;;;;;;;10.75;84.71;94307.28;2078380;28;20609;-72
2024/02/09 09:59:54;;;;;;;3.60;1.20;;;;;;;10.70;84.53;94301.56;2081012;28;20862;-72
2024/02/09 10:00:56;;;;;;;11.48;1.63;;;;;;;10.70;85.13;94305.97;2083602;28;20223;-73
2024/02/09 10:01:57;;;;;;;4.10;1.33;;;;;;;10.71;84.86;94299.81;2081050;28;20655;-72
2024/02/09 10:03:00;;;;;;;3.83;1.67;;;;;;;10.70;83.53;94290.31;2080967;28;20315;-72
2024/02/09 10:04:02;;;;;;;8.88;2.22;;;;;;;10.80;83.51;94296.44;2080433;28;20231;-73
2024/02/09 10:05:04;;;;;;;6.72;1.33;;;;;;;10.85;83.73;94304.72;2079885;28;20202;-72
2024/02/09 10:07:41;;;;;;;3.90;1.50;;;;;;;10.72;83.19;94314.53;2091066;28;20580;-71
2024/02/09 10:35:14;;;;;;;6.72;1.40;;;;;;;10.62;85.59;94296.19;2124097;27;20558;-70
2024/02/09 10:37:51;;;;;;;8.68;2.17;;;;;;;10.77;85.05;94301.91;2080883;27;20586;-71
2024/02/09 10:38:55;;;;;;;5.63;1.52;;;;;;;10.90;84.42;94297.31;2071540;28;20205;-71
2024/02/09 10:39:56;;;;;;;4.63;1.50;;;;;;;10.91;83.42;94290.34;2075150;28;20210;-71
2024/02/09 10:41:02;;;;;;;5.05;1.83;;;;;;;11.13;83.26;94291.97;2072481;28;20241;-71
2024/02/09 10:42:06;;;;;;;5.38;1.70;;;;;;;11.15;83.40;94286.59;2070432;28;20206;-71
2024/02/09 10:43:10;;;;;;;2.83;1.50;;;;;;;11.09;82.83;94296.59;2070405;28;20274;-71
2024/02/09 10:44:15;;;;;;;4.53;1.52;;;;;;;11.31;82.68;94288.75;2073384;28;20226;-71
2024/02/09 10:45:17;;;;;;;7.60;1.50;;;;;;;11.56;81.42;94290.09;2070325;28;20256;-71
2024/02/09 10:46:27;;;;;;;5.78;1.60;;;;;;;12.37;79.10;94283.97;2073363;28;20216;-71
2024/02/09 10:47:30;;;;;;;3.95;1.58;;;;;;;-145.49;100.00;55703.94;2073281;28;20200;-71
2024/02/09 10:48:37;;;;;;;5.60;1.77;;;;;;;13.46;75.08;94283.69;2067189;28;20232;-72
2024/02/09 10:49:41;;;;;;;6.53;1.40;;;;;;;13.37;74.64;94279.31;2075453;28;20709;-71
2024/02/09 10:50:44;;;;;;;4.43;1.20;;;;;;;13.00;75.20;94287.91;2076131;28;20404;-71
2024/02/09 10:51:47;;;;;;;7.20;1.50;;;;;;;12.70;76.00;94282.72;2071853;28;20202;-72
2024/02/09 10:52:50;;;;;;;6.90;1.55;;;;;;;12.49;76.92;94285.47;2069442;28;20197;-71
2024/02/09 10:54:04;;;;;;;9.80;2.38;;;;;;;12.26;78.41;94277.06;2071807;28;21021;-71
2024/02/09 10:55:09;;;;;;;8.00;1.63;;;;;;;11.92;79.26;94286.06;2071520;28;20200;-71
2024/02/09 10:56:12;;;;;;;8.25;1.30;;;;;;;11.75;80.04;94273.66;2072200;28;20287;-71
2024/02/09 10:57:14;;;;;;;7.03;1.67;;;;;;;11.64;80.53;94281.59;2069779;28;20205;-71
2024/02/09 10:58:18;;;;;;;9.10;2.00;;;;;;;11.47;80.79;94280.44;2067668;28;20704;-72
2024/02/09 10:59:20;;;;;;;4.50;1.30;;;;;;;11.42;81.31;94278.22;2070838;28;20642;-71
2024/02/09 11:00:22;;;;;;;4.82;1.55;;;;;;;11.39;81.89;94283.72;2073223;28;20827;-71
2024/02/09 11:01:25;;;;;;;3.63;1.40;;;;;;;11.44;81.58;94274.50;2074315;28;20204;-71
2024/02/09 11:02:30;;;;;;;5.25;1.90;;;;;;;11.43;82.19;94275.47;2068911;28;20552;-71
2024/02/09 11:03:32;;;;;;;4.13;1.70;;;;;;;11.42;81.32;94276.41;2076316;28;20255;-72
2024/02/09 11:04:35;;;;;;;5.20;1.65;;;;;;;11.41;81.49;94273.94;2078653;28;20199;-71
2024/02/09 11:05:38;;;;;;;6.07;2.00;;;;;;;11.36;81.69;94270.91;2071450;28;20202;-71
2024/02/09 11:06:41;;;;;;;3.80;1.67;;;;;;;11.36;81.93;94270.91;2070306;28;20418;-71
2024/02/09 11:07:49;;;;;;;2.60;1.20;;;;;;;11.93;80.15;94287.75;2069317;28;20687;-71
2024/02/09 11:08:53;;;;;;;7.95;1.95;;;;;;;12.16;79.11;94277.03;2069694;28;20197;-71
2024/02/09 11:09:55;;;;;;;3.53;1.58;;;;;;;11.93;78.99;94266.81;2072814;28;20205;-71
2024/02/09 11:11:03;;;;;;;13.23;2.05;;;;;;;11.88;79.85;94269.00;2073304;28;20200;-72
2024/02/09 11:12:08;;;;;;;8.75;2.35;;;;;;;11.81;78.96;94275.72;2079842;28;20205;-71
2024/02/09 11:13:10;;;;;;;8.70;2.28;;;;;;;11.46;79.92;94235.16;2078148;28;20229;-71
2024/02/09 11:14:12;;;;;;;9.98;2.10;;;;;;;11.56;80.76;94271.78;2070231;28;20199;-71
2024/02/09 11:15:14;;;;;;;5.85;1.95;;;;;;;11.50;81.10;94270.53;2070565;28;20197;-71
2024/02/09 11:16:17;;;;;;;9.63;2.80;;;;;;;11.49;81.63;94257.59;2068836;28;20562;-71
2024/02/09 11:17:18;;;;;;;2.95;1.25;;;;;;;11.41;81.53;94268.72;2068568;28;20194;-72
2024/02/09 11:24:58;;;;;;;10.52;1.80;;;;;;;10.90;83.15;94246.91;2099697;27;20583;-71
2024/02/09 11:35:58;;;;;;;7.07;1.73;;;;;;;10.76;83.38;94258.50;2109080;27;20560;-73
2024/02/09 11:40:50;;;;;;;7.55;1.80;;;;;;;10.70;82.68;94246.75;2090344;28;20552;-73
2024/02/09 11:45:17;;;;;;;6.43;1.70;;;;;;;10.72;82.91;94237.03;2083594;28;21059;-71
2024/02/09 11:49:59;;;;;;;4.00;1.40;;;;;;;10.62;83.67;94220.50;2086272;28;20563;-73
2024/02/09 11:54:50;;;;;;;5.57;1.70;;;;;;;10.77;83.73;94237.47;2115807;27;21054;-65
2024/02/09 12:00:08;;;;;;;5.88;1.60;;;;;;;10.65;83.78;94214.19;2100870;27;20584;-65
